sensor_id;sensor_type;location;lat;lon;timestamp;P1;durP1;ratioP1;P2;durP2;ratioP2
25915;SDS011;13719;48.188;11.618;2023-03-31T00:00:53;0.57;;;0.57;;
25915;SDS011;13719;48.188;11.618;2023-03-31T00:03:26;0.22;;;0.22;;
25915;SDS011;13719;48.188;11.618;2023-03-31T00:05:54;9.75;;;0.75;;
25915;SDS011;13719;48.188;11.618;2023-03-31T00:08:24;0.60;;;0.55;;
25915;SDS011;13719;48.188;11.618;2023-03-31T00:10:58;1.75;;;1.10;;
25915;SDS011;13719;48.188;11.618;2023-03-31T00:13:28;5.78;;;1.85;;
25915;SDS011;13719;48.188;11.618;2023-03-31T00:15:57;1.23;;;0.77;;
25915;SDS011;13719;48.188;11.618;2023-03-31T00:18:25;0.82;;;0.55;;
25915;SDS011;13719;48.188;11.618;2023-03-31T00:20:58;0.30;;;0.30;;
25915;SDS011;13719;48.188;11.618;2023-03-31T00:23:27;0.52;;;0.50;;
25915;SDS011;13719;48.188;11.618;2023-03-31T00:25:58;1.17;;;0.70;;
25915;SDS011;13719;48.188;11.618;2023-03-31T00:28:26;3.75;;;0.82;;
25915;SDS011;13719;48.188;11.618;2023-03-31T00:30:58;1.05;;;0.70;;
25915;SDS011;13719;48.188;11.618;2023-03-31T00:33:27;0.70;;;0.45;;
25915;SDS011;13719;48.188;11.618;2023-03-31T00:35:56;1.00;;;0.77;;
25915;SDS011;13719;48.188;11.618;2023-03-31T00:38:32;1.38;;;0.80;;
25915;SDS011;13719;48.188;11.618;2023-03-31T00:41:02;0.80;;;0.80;;
25915;SDS011;13719;48.188;11.618;2023-03-31T00:43:32;6.28;;;0.90;;
25915;SDS011;13719;48.188;11.618;2023-03-31T00:46:02;1.77;;;0.70;;
25915;SDS011;13719;48.188;11.618;2023-03-31T00:48:33;4.78;;;0.80;;
25915;SDS011;13719;48.188;11.618;2023-03-31T00:51:04;0.98;;;0.88;;
25915;SDS011;13719;48.188;11.618;2023-03-31T00:53:34;1.00;;;0.80;;
25915;SDS011;13719;48.188;11.618;2023-03-31T00:56:08;1.00;;;0.90;;
25915;SDS011;13719;48.188;11.618;2023-03-31T00:58:38;0.55;;;0.55;;
25915;SDS011;13719;48.188;11.618;2023-03-31T01:01:09;1.17;;;0.75;;
25915;SDS011;13719;48.188;11.618;2023-03-31T01:03:40;1.45;;;0.75;;
25915;SDS011;13719;48.188;11.618;2023-03-31T01:06:12;0.85;;;0.73;;
25915;SDS011;13719;48.188;11.618;2023-03-31T01:08:42;1.30;;;0.77;;
25915;SDS011;13719;48.188;11.618;2023-03-31T01:11:13;4.85;;;0.60;;
25915;SDS011;13719;48.188;11.618;2023-03-31T01:13:42;2.08;;;1.35;;
25915;SDS011;13719;48.188;11.618;2023-03-31T01:16:11;2.70;;;0.98;;
25915;SDS011;13719;48.188;11.618;2023-03-31T01:18:39;0.63;;;0.63;;
25915;SDS011;13719;48.188;11.618;2023-03-31T01:21:23;0.82;;;0.50;;
25915;SDS011;13719;48.188;11.618;2023-03-31T01:24:07;1.30;;;1.13;;
25915;SDS011;13719;48.188;11.618;2023-03-31T01:26:55;0.30;;;0.30;;
25915;SDS011;13719;48.188;11.618;2023-03-31T01:32:22;4.45;;;1.55;;
25915;SDS011;13719;48.188;11.618;2023-03-31T01:35:00;2.53;;;0.95;;
25915;SDS011;13719;48.188;11.618;2023-03-31T01:43:23;3.95;;;1.15;;
25915;SDS011;13719;48.188;11.618;2023-03-31T01:45:54;1.02;;;0.90;;
25915;SDS011;13719;48.188;11.618;2023-03-31T01:48:27;0.90;;;0.90;;
25915;SDS011;13719;48.188;11.618;2023-03-31T01:51:02;1.38;;;1.27;;
25915;SDS011;13719;48.188;11.618;2023-03-31T01:53:33;0.88;;;0.80;;
25915;SDS011;13719;48.188;11.618;2023-03-31T01:56:04;0.98;;;0.85;;
25915;SDS011;13719;48.188;11.618;2023-03-31T01:58:36;0.93;;;0.73;;
25915;SDS011;13719;48.188;11.618;2023-03-31T02:01:08;1.70;;;0.80;;
25915;SDS011;13719;48.188;11.618;2023-03-31T02:03:42;9.73;;;1.13;;
25915;SDS011;13719;48.188;11.618;2023-03-31T02:06:15;7.75;;;1.48;;
25915;SDS011;13719;48.188;11.618;2023-03-31T02:08:45;1.60;;;0.82;;
25915;SDS011;13719;48.188;11.618;2023-03-31T02:11:14;2.75;;;1.42;;
25915;SDS011;13719;48.188;11.618;2023-03-31T02:13:45;1.63;;;0.82;;
25915;SDS011;13719;48.188;11.618;2023-03-31T02:16:15;1.98;;;1.05;;
25915;SDS011;13719;48.188;11.618;2023-03-31T02:18:44;6.82;;;1.60;;
25915;SDS011;13719;48.188;11.618;2023-03-31T02:21:15;0.93;;;0.93;;
25915;SDS011;13719;48.188;11.618;2023-03-31T02:23:43;1.55;;;1.35;;
25915;SDS011;13719;48.188;11.618;2023-03-31T02:26:12;1.40;;;1.00;;
25915;SDS011;13719;48.188;11.618;2023-03-31T02:28:42;2.38;;;1.10;;
25915;SDS011;13719;48.188;11.618;2023-03-31T02:31:16;1.17;;;0.98;;
25915;SDS011;13719;48.188;11.618;2023-03-31T02:33:48;2.35;;;0.70;;
25915;SDS011;13719;48.188;11.618;2023-03-31T02:36:17;0.65;;;0.65;;
25915;SDS011;13719;48.188;11.618;2023-03-31T02:38:47;1.38;;;1.27;;
25915;SDS011;13719;48.188;11.618;2023-03-31T02:41:17;0.95;;;0.85;;
25915;SDS011;13719;48.188;11.618;2023-03-31T02:43:45;3.45;;;1.83;;
25915;SDS011;13719;48.188;11.618;2023-03-31T02:46:15;0.90;;;0.82;;
25915;SDS011;13719;48.188;11.618;2023-03-31T02:48:44;3.80;;;2.78;;
25915;SDS011;13719;48.188;11.618;2023-03-31T02:51:19;1.05;;;0.95;;
25915;SDS011;13719;48.188;11.618;2023-03-31T02:53:58;1.40;;;1.15;;
25915;SDS011;13719;48.188;11.618;2023-03-31T02:56:38;2.92;;;1.65;;
25915;SDS011;13719;48.188;11.618;2023-03-31T02:59:19;3.45;;;2.60;;
25915;SDS011;13719;48.188;11.618;2023-03-31T03:01:56;1.83;;;1.50;;
25915;SDS011;13719;48.188;11.618;2023-03-31T03:04:34;4.22;;;1.50;;
25915;SDS011;13719;48.188;11.618;2023-03-31T03:07:05;1.77;;;1.65;;
25915;SDS011;13719;48.188;11.618;2023-03-31T03:09:37;4.10;;;1.70;;
25915;SDS011;13719;48.188;11.618;2023-03-31T03:12:12;3.08;;;2.13;;
25915;SDS011;13719;48.188;11.618;2023-03-31T03:14:44;2.72;;;1.38;;
25915;SDS011;13719;48.188;11.618;2023-03-31T03:17:17;6.82;;;1.20;;
25915;SDS011;13719;48.188;11.618;2023-03-31T03:19:49;6.47;;;1.70;;
25915;SDS011;13719;48.188;11.618;2023-03-31T03:22:18;6.13;;;0.95;;
25915;SDS011;13719;48.188;11.618;2023-03-31T03:24:46;7.75;;;1.48;;
25915;SDS011;13719;48.188;11.618;2023-03-31T03:27:14;1.67;;;0.98;;
25915;SDS011;13719;48.188;11.618;2023-03-31T03:29:43;3.70;;;0.63;;
25915;SDS011;13719;48.188;11.618;2023-03-31T03:32:12;5.55;;;1.27;;
25915;SDS011;13719;48.188;11.618;2023-03-31T03:34:42;1.25;;;1.02;;
25915;SDS011;13719;48.188;11.618;2023-03-31T03:37:10;3.13;;;1.30;;
25915;SDS011;13719;48.188;11.618;2023-03-31T03:39:39;3.05;;;1.27;;
25915;SDS011;13719;48.188;11.618;2023-03-31T03:42:07;7.22;;;1.45;;
25915;SDS011;13719;48.188;11.618;2023-03-31T03:44:35;2.83;;;1.70;;
25915;SDS011;13719;48.188;11.618;2023-03-31T03:47:04;1.45;;;1.23;;
25915;SDS011;13719;48.188;11.618;2023-03-31T03:49:32;2.03;;;1.80;;
25915;SDS011;13719;48.188;11.618;2023-03-31T03:52:02;3.58;;;1.65;;
25915;SDS011;13719;48.188;11.618;2023-03-31T03:54:30;0.70;;;0.65;;
25915;SDS011;13719;48.188;11.618;2023-03-31T03:56:59;1.75;;;1.00;;
25915;SDS011;13719;48.188;11.618;2023-03-31T03:59:27;4.10;;;1.50;;
25915;SDS011;13719;48.188;11.618;2023-03-31T04:01:55;1.80;;;1.08;;
25915;SDS011;13719;48.188;11.618;2023-03-31T04:04:24;1.73;;;0.90;;
25915;SDS011;13719;48.188;11.618;2023-03-31T04:06:52;6.30;;;1.02;;
25915;SDS011;13719;48.188;11.618;2023-03-31T04:09:22;7.03;;;1.60;;
25915;SDS011;13719;48.188;11.618;2023-03-31T04:11:50;1.77;;;1.13;;
25915;SDS011;13719;48.188;11.618;2023-03-31T04:14:19;1.30;;;0.63;;
25915;SDS011;13719;48.188;11.618;2023-03-31T04:16:47;0.90;;;0.70;;
25915;SDS011;13719;48.188;11.618;2023-03-31T04:19:15;1.83;;;1.15;;
25915;SDS011;13719;48.188;11.618;2023-03-31T04:21:44;1.92;;;1.27;;
25915;SDS011;13719;48.188;11.618;2023-03-31T04:24:16;1.83;;;1.65;;
25915;SDS011;13719;48.188;11.618;2023-03-31T04:26:48;3.38;;;1.48;;
25915;SDS011;13719;48.188;11.618;2023-03-31T04:29:16;4.22;;;0.95;;
25915;SDS011;13719;48.188;11.618;2023-03-31T04:31:48;0.90;;;0.90;;
25915;SDS011;13719;48.188;11.618;2023-03-31T04:34:18;4.00;;;1.58;;
25915;SDS011;13719;48.188;11.618;2023-03-31T04:36:47;1.80;;;1.02;;
25915;SDS011;13719;48.188;11.618;2023-03-31T04:39:16;2.67;;;1.15;;
25915;SDS011;13719;48.188;11.618;2023-03-31T04:41:51;4.85;;;1.38;;
25915;SDS011;13719;48.188;11.618;2023-03-31T04:44:19;1.63;;;1.10;;
25915;SDS011;13719;48.188;11.618;2023-03-31T04:46:47;1.35;;;1.00;;
25915;SDS011;13719;48.188;11.618;2023-03-31T04:49:16;4.25;;;1.05;;
25915;SDS011;13719;48.188;11.618;2023-03-31T04:51:44;4.63;;;1.10;;
25915;SDS011;13719;48.188;11.618;2023-03-31T04:54:12;2.13;;;1.35;;
25915;SDS011;13719;48.188;11.618;2023-03-31T04:56:41;1.67;;;0.95;;
25915;SDS011;13719;48.188;11.618;2023-03-31T04:59:11;2.55;;;1.15;;
25915;SDS011;13719;48.188;11.618;2023-03-31T05:01:39;2.28;;;1.20;;
25915;SDS011;13719;48.188;11.618;2023-03-31T05:04:10;3.13;;;1.60;;
25915;SDS011;13719;48.188;11.618;2023-03-31T05:06:38;2.60;;;1.58;;
25915;SDS011;13719;48.188;11.618;2023-03-31T05:09:07;3.92;;;1.65;;
25915;SDS011;13719;48.188;11.618;2023-03-31T05:11:35;1.20;;;0.85;;
25915;SDS011;13719;48.188;11.618;2023-03-31T05:14:04;3.08;;;1.40;;
25915;SDS011;13719;48.188;11.618;2023-03-31T05:16:34;1.67;;;1.10;;
25915;SDS011;13719;48.188;11.618;2023-03-31T05:19:02;1.45;;;1.13;;
25915;SDS011;13719;48.188;11.618;2023-03-31T05:21:31;2.35;;;1.42;;
25915;SDS011;13719;48.188;11.618;2023-03-31T05:23:59;2.25;;;1.15;;
25915;SDS011;13719;48.188;11.618;2023-03-31T05:26:28;2.00;;;1.30;;
25915;SDS011;13719;48.188;11.618;2023-03-31T05:28:56;1.13;;;0.88;;
25915;SDS011;13719;48.188;11.618;2023-03-31T05:31:25;3.38;;;1.17;;
25915;SDS011;13719;48.188;11.618;2023-03-31T05:33:54;1.35;;;1.25;;
25915;SDS011;13719;48.188;11.618;2023-03-31T05:36:23;1.67;;;1.10;;
25915;SDS011;13719;48.188;11.618;2023-03-31T05:38:52;2.78;;;1.05;;
25915;SDS011;13719;48.188;11.618;2023-03-31T05:41:20;2.03;;;1.27;;
25915;SDS011;13719;48.188;11.618;2023-03-31T05:43:49;2.30;;;1.42;;
25915;SDS011;13719;48.188;11.618;2023-03-31T05:46:17;1.48;;;1.27;;
25915;SDS011;13719;48.188;11.618;2023-03-31T05:48:45;6.75;;;1.38;;
25915;SDS011;13719;48.188;11.618;2023-03-31T05:51:15;2.38;;;1.52;;
25915;SDS011;13719;48.188;11.618;2023-03-31T05:53:44;2.65;;;1.60;;
25915;SDS011;13719;48.188;11.618;2023-03-31T05:56:12;3.05;;;1.17;;
25915;SDS011;13719;48.188;11.618;2023-03-31T05:58:40;4.20;;;1.25;;
25915;SDS011;13719;48.188;11.618;2023-03-31T06:01:09;3.55;;;1.08;;
25915;SDS011;13719;48.188;11.618;2023-03-31T06:03:38;8.73;;;1.90;;
25915;SDS011;13719;48.188;11.618;2023-03-31T06:06:08;6.13;;;2.28;;
25915;SDS011;13719;48.188;11.618;2023-03-31T06:08:39;1.83;;;1.25;;
25915;SDS011;13719;48.188;11.618;2023-03-31T06:11:08;1.52;;;1.15;;
25915;SDS011;13719;48.188;11.618;2023-03-31T06:13:37;4.95;;;2.75;;
25915;SDS011;13719;48.188;11.618;2023-03-31T06:16:06;4.70;;;1.55;;
25915;SDS011;13719;48.188;11.618;2023-03-31T06:18:34;1.70;;;1.25;;
25915;SDS011;13719;48.188;11.618;2023-03-31T06:21:03;2.70;;;1.23;;
25915;SDS011;13719;48.188;11.618;2023-03-31T06:23:32;8.30;;;2.10;;
25915;SDS011;13719;48.188;11.618;2023-03-31T06:26:03;5.20;;;1.67;;
25915;SDS011;13719;48.188;11.618;2023-03-31T06:28:33;3.55;;;2.13;;
25915;SDS011;13719;48.188;11.618;2023-03-31T06:31:02;1.70;;;1.60;;
25915;SDS011;13719;48.188;11.618;2023-03-31T06:33:31;3.00;;;1.20;;
25915;SDS011;13719;48.188;11.618;2023-03-31T06:35:59;3.40;;;1.35;;
25915;SDS011;13719;48.188;11.618;2023-03-31T06:38:31;3.10;;;1.33;;
25915;SDS011;13719;48.188;11.618;2023-03-31T06:40:59;5.22;;;1.67;;
25915;SDS011;13719;48.188;11.618;2023-03-31T06:43:29;8.52;;;1.70;;
25915;SDS011;13719;48.188;11.618;2023-03-31T06:45:58;8.68;;;1.90;;
25915;SDS011;13719;48.188;11.618;2023-03-31T06:48:26;1.98;;;1.25;;
25915;SDS011;13719;48.188;11.618;2023-03-31T06:50:55;1.83;;;0.93;;
25915;SDS011;13719;48.188;11.618;2023-03-31T06:53:25;4.45;;;1.40;;
25915;SDS011;13719;48.188;11.618;2023-03-31T06:55:54;4.32;;;1.48;;
25915;SDS011;13719;48.188;11.618;2023-03-31T06:58:22;3.13;;;1.17;;
25915;SDS011;13719;48.188;11.618;2023-03-31T07:00:53;7.97;;;1.45;;
25915;SDS011;13719;48.188;11.618;2023-03-31T07:03:22;1.67;;;1.25;;
25915;SDS011;13719;48.188;11.618;2023-03-31T07:05:51;5.60;;;1.40;;
25915;SDS011;13719;48.188;11.618;2023-03-31T07:08:20;2.25;;;1.30;;
25915;SDS011;13719;48.188;11.618;2023-03-31T07:10:48;1.83;;;0.98;;
25915;SDS011;13719;48.188;11.618;2023-03-31T07:13:17;1.27;;;0.88;;
25915;SDS011;13719;48.188;11.618;2023-03-31T07:15:46;3.85;;;1.48;;
25915;SDS011;13719;48.188;11.618;2023-03-31T07:18:16;1.05;;;0.70;;
25915;SDS011;13719;48.188;11.618;2023-03-31T07:20:46;1.52;;;0.80;;
25915;SDS011;13719;48.188;11.618;2023-03-31T07:23:15;2.00;;;1.20;;
25915;SDS011;13719;48.188;11.618;2023-03-31T07:25:45;6.13;;;1.60;;
25915;SDS011;13719;48.188;11.618;2023-03-31T07:28:13;3.65;;;1.25;;
25915;SDS011;13719;48.188;11.618;2023-03-31T07:30:41;4.00;;;1.30;;
25915;SDS011;13719;48.188;11.618;2023-03-31T07:33:10;5.30;;;1.52;;
25915;SDS011;13719;48.188;11.618;2023-03-31T07:35:40;4.13;;;1.30;;
25915;SDS011;13719;48.188;11.618;2023-03-31T07:38:09;3.00;;;1.35;;
25915;SDS011;13719;48.188;11.618;2023-03-31T07:40:37;1.67;;;1.27;;
25915;SDS011;13719;48.188;11.618;2023-03-31T07:43:06;3.17;;;1.75;;
25915;SDS011;13719;48.188;11.618;2023-03-31T07:45:35;6.85;;;1.67;;
25915;SDS011;13719;48.188;11.618;2023-03-31T07:48:06;3.45;;;1.10;;
25915;SDS011;13719;48.188;11.618;2023-03-31T07:50:34;9.20;;;1.40;;
25915;SDS011;13719;48.188;11.618;2023-03-31T07:53:04;6.15;;;1.83;;
25915;SDS011;13719;48.188;11.618;2023-03-31T07:55:33;1.80;;;1.42;;
25915;SDS011;13719;48.188;11.618;2023-03-31T07:58:01;1.35;;;1.25;;
25915;SDS011;13719;48.188;11.618;2023-03-31T08:00:29;9.93;;;1.63;;
25915;SDS011;13719;48.188;11.618;2023-03-31T08:02:58;5.38;;;1.92;;
25915;SDS011;13719;48.188;11.618;2023-03-31T08:05:26;5.43;;;1.85;;
25915;SDS011;13719;48.188;11.618;2023-03-31T08:07:55;2.53;;;0.95;;
25915;SDS011;13719;48.188;11.618;2023-03-31T08:10:25;3.25;;;1.38;;
25915;SDS011;13719;48.188;11.618;2023-03-31T08:12:53;0.57;;;0.57;;
25915;SDS011;13719;48.188;11.618;2023-03-31T08:15:22;2.85;;;1.55;;
25915;SDS011;13719;48.188;11.618;2023-03-31T08:17:51;1.23;;;0.88;;
25915;SDS011;13719;48.188;11.618;2023-03-31T08:20:19;2.30;;;1.15;;
25915;SDS011;13719;48.188;11.618;2023-03-31T08:22:47;3.03;;;1.38;;
25915;SDS011;13719;48.188;11.618;2023-03-31T08:25:16;6.68;;;1.35;;
25915;SDS011;13719;48.188;11.618;2023-03-31T08:27:47;2.35;;;1.63;;
25915;SDS011;13719;48.188;11.618;2023-03-31T08:30:17;4.45;;;2.17;;
25915;SDS011;13719;48.188;11.618;2023-03-31T08:32:45;4.30;;;2.42;;
25915;SDS011;13719;48.188;11.618;2023-03-31T08:35:14;12.88;;;2.20;;
25915;SDS011;13719;48.188;11.618;2023-03-31T08:37:42;1.92;;;1.55;;
25915;SDS011;13719;48.188;11.618;2023-03-31T08:40:12;1.75;;;1.48;;
25915;SDS011;13719;48.188;11.618;2023-03-31T08:42:42;1.92;;;1.17;;
25915;SDS011;13719;48.188;11.618;2023-03-31T08:45:16;2.45;;;1.60;;
25915;SDS011;13719;48.188;11.618;2023-03-31T08:47:46;1.88;;;1.27;;
25915;SDS011;13719;48.188;11.618;2023-03-31T08:50:16;2.08;;;1.20;;
25915;SDS011;13719;48.188;11.618;2023-03-31T08:52:47;2.60;;;1.00;;
25915;SDS011;13719;48.188;11.618;2023-03-31T08:55:19;3.67;;;1.08;;
25915;SDS011;13719;48.188;11.618;2023-03-31T08:57:51;4.18;;;1.10;;
25915;SDS011;13719;48.188;11.618;2023-03-31T09:00:24;2.42;;;1.17;;
25915;SDS011;13719;48.188;11.618;2023-03-31T09:02:54;1.70;;;0.95;;
25915;SDS011;13719;48.188;11.618;2023-03-31T09:08:30;1.60;;;1.25;;
25915;SDS011;13719;48.188;11.618;2023-03-31T09:11:03;2.40;;;1.20;;
25915;SDS011;13719;48.188;11.618;2023-03-31T09:13:45;1.50;;;1.02;;
25915;SDS011;13719;48.188;11.618;2023-03-31T09:16:17;1.60;;;0.95;;
25915;SDS011;13719;48.188;11.618;2023-03-31T09:18:49;1.40;;;0.55;;
25915;SDS011;13719;48.188;11.618;2023-03-31T09:21:20;6.38;;;1.10;;
25915;SDS011;13719;48.188;11.618;2023-03-31T09:23:50;2.20;;;1.23;;
25915;SDS011;13719;48.188;11.618;2023-03-31T09:26:24;4.07;;;0.77;;
25915;SDS011;13719;48.188;11.618;2023-03-31T09:28:53;0.98;;;0.75;;
25915;SDS011;13719;48.188;11.618;2023-03-31T09:31:26;1.80;;;0.90;;
25915;SDS011;13719;48.188;11.618;2023-03-31T09:33:56;1.10;;;0.73;;
25915;SDS011;13719;48.188;11.618;2023-03-31T09:36:26;0.77;;;0.52;;
25915;SDS011;13719;48.188;11.618;2023-03-31T09:38:55;1.50;;;0.80;;
25915;SDS011;13719;48.188;11.618;2023-03-31T09:41:23;2.25;;;0.80;;
25915;SDS011;13719;48.188;11.618;2023-03-31T09:43:52;2.33;;;1.02;;
25915;SDS011;13719;48.188;11.618;2023-03-31T09:46:23;3.50;;;0.80;;
25915;SDS011;13719;48.188;11.618;2023-03-31T09:48:57;8.18;;;1.48;;
25915;SDS011;13719;48.188;11.618;2023-03-31T09:51:28;1.80;;;1.08;;
25915;SDS011;13719;48.188;11.618;2023-03-31T09:54:00;2.05;;;0.98;;
25915;SDS011;13719;48.188;11.618;2023-03-31T09:56:43;1.50;;;0.82;;
25915;SDS011;13719;48.188;11.618;2023-03-31T09:59:14;1.42;;;0.90;;
25915;SDS011;13719;48.188;11.618;2023-03-31T10:01:44;1.98;;;0.43;;
25915;SDS011;13719;48.188;11.618;2023-03-31T10:04:17;2.05;;;0.63;;
25915;SDS011;13719;48.188;11.618;2023-03-31T10:06:47;0.80;;;0.80;;
25915;SDS011;13719;48.188;11.618;2023-03-31T10:09:15;0.70;;;0.50;;
25915;SDS011;13719;48.188;11.618;2023-03-31T10:11:51;1.02;;;0.50;;
25915;SDS011;13719;48.188;11.618;2023-03-31T10:14:23;3.15;;;0.70;;
25915;SDS011;13719;48.188;11.618;2023-03-31T10:16:53;0.60;;;0.60;;
25915;SDS011;13719;48.188;11.618;2023-03-31T10:19:23;1.63;;;0.90;;
25915;SDS011;13719;48.188;11.618;2023-03-31T10:21:56;0.55;;;0.50;;
25915;SDS011;13719;48.188;11.618;2023-03-31T10:24:26;1.25;;;0.93;;
25915;SDS011;13719;48.188;11.618;2023-03-31T10:27:03;1.73;;;1.17;;
25915;SDS011;13719;48.188;11.618;2023-03-31T10:29:33;2.22;;;0.90;;
25915;SDS011;13719;48.188;11.618;2023-03-31T10:32:02;1.25;;;0.63;;
25915;SDS011;13719;48.188;11.618;2023-03-31T10:34:33;1.20;;;0.70;;
25915;SDS011;13719;48.188;11.618;2023-03-31T10:37:02;1.23;;;0.65;;
25915;SDS011;13719;48.188;11.618;2023-03-31T10:39:31;0.98;;;0.82;;
25915;SDS011;13719;48.188;11.618;2023-03-31T10:41:59;2.35;;;0.65;;
25915;SDS011;13719;48.188;11.618;2023-03-31T10:44:32;3.05;;;0.98;;
25915;SDS011;13719;48.188;11.618;2023-03-31T10:47:03;1.52;;;0.65;;
25915;SDS011;13719;48.188;11.618;2023-03-31T10:49:37;0.40;;;0.40;;
25915;SDS011;13719;48.188;11.618;2023-03-31T10:52:14;1.07;;;0.80;;
25915;SDS011;13719;48.188;11.618;2023-03-31T10:54:51;6.65;;;0.75;;
25915;SDS011;13719;48.188;11.618;2023-03-31T10:57:21;4.00;;;0.75;;
25915;SDS011;13719;48.188;11.618;2023-03-31T10:59:55;4.75;;;0.77;;
25915;SDS011;13719;48.188;11.618;2023-03-31T11:02:35;1.58;;;0.90;;
25915;SDS011;13719;48.188;11.618;2023-03-31T11:05:12;2.65;;;1.02;;
25915;SDS011;13719;48.188;11.618;2023-03-31T11:07:45;4.43;;;0.65;;
25915;SDS011;13719;48.188;11.618;2023-03-31T11:12:46;0.82;;;0.55;;
25915;SDS011;13719;48.188;11.618;2023-03-31T11:15:18;0.80;;;0.68;;
25915;SDS011;13719;48.188;11.618;2023-03-31T11:17:54;0.50;;;0.50;;
25915;SDS011;13719;48.188;11.618;2023-03-31T11:20:27;2.47;;;1.23;;
25915;SDS011;13719;48.188;11.618;2023-03-31T11:22:58;2.60;;;0.60;;
25915;SDS011;13719;48.188;11.618;2023-03-31T11:25:31;1.65;;;0.80;;
25915;SDS011;13719;48.188;11.618;2023-03-31T11:28:07;1.48;;;0.75;;
25915;SDS011;13719;48.188;11.618;2023-03-31T11:30:42;0.32;;;0.32;;
25915;SDS011;13719;48.188;11.618;2023-03-31T11:33:21;0.30;;;0.30;;
25915;SDS011;13719;48.188;11.618;2023-03-31T11:35:59;1.08;;;0.30;;
25915;SDS011;13719;48.188;11.618;2023-03-31T11:38:40;0.10;;;0.10;;
25915;SDS011;13719;48.188;11.618;2023-03-31T11:41:12;1.02;;;0.93;;
25915;SDS011;13719;48.188;11.618;2023-03-31T11:43:42;0.70;;;0.50;;
25915;SDS011;13719;48.188;11.618;2023-03-31T11:46:11;1.33;;;0.30;;
25915;SDS011;13719;48.188;11.618;2023-03-31T11:48:42;0.85;;;0.50;;
25915;SDS011;13719;48.188;11.618;2023-03-31T11:51:14;6.93;;;0.40;;
25915;SDS011;13719;48.188;11.618;2023-03-31T11:53:43;0.22;;;0.20;;
25915;SDS011;13719;48.188;11.618;2023-03-31T11:56:14;0.50;;;0.50;;
25915;SDS011;13719;48.188;11.618;2023-03-31T11:58:44;0.45;;;0.45;;
25915;SDS011;13719;48.188;11.618;2023-03-31T12:01:15;0.30;;;0.30;;
25915;SDS011;13719;48.188;11.618;2023-03-31T12:03:46;4.38;;;0.40;;
25915;SDS011;13719;48.188;11.618;2023-03-31T12:06:18;2.22;;;0.50;;
25915;SDS011;13719;48.188;11.618;2023-03-31T12:08:50;0.30;;;0.30;;
25915;SDS011;13719;48.188;11.618;2023-03-31T12:11:23;0.20;;;0.20;;
25915;SDS011;13719;48.188;11.618;2023-03-31T12:13:54;0.57;;;0.50;;
25915;SDS011;13719;48.188;11.618;2023-03-31T12:16:28;0.70;;;0.50;;
25915;SDS011;13719;48.188;11.618;2023-03-31T12:19:00;1.75;;;0.68;;
25915;SDS011;13719;48.188;11.618;2023-03-31T12:21:31;1.13;;;0.70;;
25915;SDS011;13719;48.188;11.618;2023-03-31T12:24:01;1.45;;;0.35;;
25915;SDS011;13719;48.188;11.618;2023-03-31T12:26:33;1.35;;;0.38;;
25915;SDS011;13719;48.188;11.618;2023-03-31T12:29:06;0.47;;;0.47;;
25915;SDS011;13719;48.188;11.618;2023-03-31T12:31:39;0.40;;;0.40;;
25915;SDS011;13719;48.188;11.618;2023-03-31T12:34:11;2.10;;;0.25;;
25915;SDS011;13719;48.188;11.618;2023-03-31T12:36:44;0.50;;;0.50;;
25915;SDS011;13719;48.188;11.618;2023-03-31T12:39:27;0.52;;;0.35;;
25915;SDS011;13719;48.188;11.618;2023-03-31T12:42:02;0.77;;;0.40;;
25915;SDS011;13719;48.188;11.618;2023-03-31T12:44:35;0.73;;;0.50;;
25915;SDS011;13719;48.188;11.618;2023-03-31T12:47:27;0.25;;;0.20;;
25915;SDS011;13719;48.188;11.618;2023-03-31T12:50:08;0.32;;;0.32;;
25915;SDS011;13719;48.188;11.618;2023-03-31T12:52:44;0.55;;;0.45;;
25915;SDS011;13719;48.188;11.618;2023-03-31T12:55:20;0.32;;;0.30;;
25915;SDS011;13719;48.188;11.618;2023-03-31T12:57:50;0.73;;;0.32;;
25915;SDS011;13719;48.188;11.618;2023-03-31T13:00:23;5.95;;;0.73;;
25915;SDS011;13719;48.188;11.618;2023-03-31T13:05:45;0.88;;;0.70;;
25915;SDS011;13719;48.188;11.618;2023-03-31T13:11:20;0.30;;;0.20;;
25915;SDS011;13719;48.188;11.618;2023-03-31T13:13:55;1.55;;;0.88;;
25915;SDS011;13719;48.188;11.618;2023-03-31T13:16:26;1.30;;;0.60;;
25915;SDS011;13719;48.188;11.618;2023-03-31T13:18:55;0.75;;;0.30;;
25915;SDS011;13719;48.188;11.618;2023-03-31T13:21:23;0.73;;;0.55;;
25915;SDS011;13719;48.188;11.618;2023-03-31T13:23:52;0.90;;;0.55;;
25915;SDS011;13719;48.188;11.618;2023-03-31T13:26:38;0.13;;;0.13;;
25915;SDS011;13719;48.188;11.618;2023-03-31T13:29:21;0.45;;;0.32;;
25915;SDS011;13719;48.188;11.618;2023-03-31T13:32:06;1.65;;;1.10;;
25915;SDS011;13719;48.188;11.618;2023-03-31T13:34:37;0.57;;;0.32;;
25915;SDS011;13719;48.188;11.618;2023-03-31T13:37:10;0.47;;;0.20;;
25915;SDS011;13719;48.188;11.618;2023-03-31T13:39:47;0.30;;;0.10;;
25915;SDS011;13719;48.188;11.618;2023-03-31T13:42:26;3.42;;;0.30;;
25915;SDS011;13719;48.188;11.618;2023-03-31T13:45:02;1.70;;;0.25;;
25915;SDS011;13719;48.188;11.618;2023-03-31T13:47:41;2.20;;;1.20;;
25915;SDS011;13719;48.188;11.618;2023-03-31T13:50:15;3.70;;;0.45;;
25915;SDS011;13719;48.188;11.618;2023-03-31T13:52:46;0.30;;;0.15;;
25915;SDS011;13719;48.188;11.618;2023-03-31T13:58:27;0.10;;;0.10;;
25915;SDS011;13719;48.188;11.618;2023-03-31T14:01:14;3.40;;;0.30;;
25915;SDS011;13719;48.188;11.618;2023-03-31T14:03:51;0.50;;;0.30;;
25915;SDS011;13719;48.188;11.618;2023-03-31T14:06:23;0.00;;;0.00;;
25915;SDS011;13719;48.188;11.618;2023-03-31T14:08:53;1.55;;;0.20;;
25915;SDS011;13719;48.188;11.618;2023-03-31T14:11:23;3.33;;;0.43;;
25915;SDS011;13719;48.188;11.618;2023-03-31T14:13:59;0.17;;;0.10;;
25915;SDS011;13719;48.188;11.618;2023-03-31T14:16:30;0.10;;;0.10;;
25915;SDS011;13719;48.188;11.618;2023-03-31T14:19:03;0.32;;;0.20;;
25915;SDS011;13719;48.188;11.618;2023-03-31T14:24:03;0.15;;;0.15;;
25915;SDS011;13719;48.188;11.618;2023-03-31T14:26:43;0.25;;;0.25;;
25915;SDS011;13719;48.188;11.618;2023-03-31T14:29:15;2.65;;;0.20;;
25915;SDS011;13719;48.188;11.618;2023-03-31T14:31:48;0.63;;;0.25;;
25915;SDS011;13719;48.188;11.618;2023-03-31T14:37:13;1.65;;;0.28;;
25915;SDS011;13719;48.188;11.618;2023-03-31T14:39:43;1.17;;;0.20;;
25915;SDS011;13719;48.188;11.618;2023-03-31T14:42:13;0.52;;;0.20;;
25915;SDS011;13719;48.188;11.618;2023-03-31T14:44:44;0.98;;;0.30;;
25915;SDS011;13719;48.188;11.618;2023-03-31T14:47:14;3.75;;;0.25;;
25915;SDS011;13719;48.188;11.618;2023-03-31T14:49:42;0.90;;;0.28;;
25915;SDS011;13719;48.188;11.618;2023-03-31T14:52:12;0.38;;;0.38;;
25915;SDS011;13719;48.188;11.618;2023-03-31T14:54:42;0.50;;;0.20;;
25915;SDS011;13719;48.188;11.618;2023-03-31T14:57:14;0.20;;;0.20;;
25915;SDS011;13719;48.188;11.618;2023-03-31T14:59:45;2.38;;;0.20;;
25915;SDS011;13719;48.188;11.618;2023-03-31T15:02:15;1.85;;;0.20;;
25915;SDS011;13719;48.188;11.618;2023-03-31T15:04:45;0.15;;;0.15;;
25915;SDS011;13719;48.188;11.618;2023-03-31T15:07:15;1.15;;;0.08;;
25915;SDS011;13719;48.188;11.618;2023-03-31T15:09:44;0.10;;;0.10;;
25915;SDS011;13719;48.188;11.618;2023-03-31T15:12:16;0.00;;;0.00;;
25915;SDS011;13719;48.188;11.618;2023-03-31T15:14:47;0.10;;;0.10;;
25915;SDS011;13719;48.188;11.618;2023-03-31T15:17:17;0.13;;;0.13;;
25915;SDS011;13719;48.188;11.618;2023-03-31T15:19:50;1.15;;;0.25;;
25915;SDS011;13719;48.188;11.618;2023-03-31T15:22:20;0.17;;;0.17;;
25915;SDS011;13719;48.188;11.618;2023-03-31T15:24:49;0.00;;;0.00;;